Time;durP1;ratioP1;P1;durP2;ratioP2;P2;SDS_P1;SDS_P2;PMS_P1;PMS_P2;Temp;Humidity;BMP_temperature;BMP_pressure;BME280_temperature;BME280_humidity;BME280_pressure;Samples;Min_cycle;Max_cycle;Signal;HPM_P1;HPM_P2
2022/08/04 00:00:12;;;;;;;4.95;2.20;;;;;;;-148.56;100.00;61375.16;4938216;28;20041;-29
2022/08/04 00:02:52;;;;;;;3.67;2.08;;;;;;;-148.56;100.00;61375.16;4932938;28;20143;-33
2022/08/04 00:05:36;;;;;;;4.05;2.05;;;;;;;-148.56;100.00;61375.16;4932790;28;20035;-30
2022/08/04 00:08:15;;;;;;;4.50;1.90;;;;;;;-148.56;100.00;61375.16;4932608;28;20037;-29
2022/08/04 00:10:40;;;;;;;3.22;2.15;;;;;;;-148.56;100.00;61375.16;4937915;28;20127;-28
2022/08/04 00:13:05;;;;;;;2.78;2.10;;;;;;;-148.56;100.00;61375.16;4934050;28;21862;-30
2022/08/04 00:15:32;;;;;;;2.13;1.80;;;;;;;-148.56;100.00;61375.16;4934805;28;20027;-32
2022/08/04 00:18:04;;;;;;;4.05;2.08;;;;;;;-148.56;100.00;61375.16;4937464;28;20026;-30
2022/08/04 00:20:32;;;;;;;3.45;2.03;;;;;;;-148.56;100.00;61375.16;4935328;28;20097;-29
2022/08/04 00:22:57;;;;;;;2.97;2.20;;;;;;;-148.56;100.00;61375.16;4937222;28;20022;-30
2022/08/04 00:25:23;;;;;;;3.00;2.00;;;;;;;-148.56;100.00;61375.16;4933936;28;20105;-29
2022/08/04 00:27:48;;;;;;;3.58;2.03;;;;;;;-148.56;100.00;61375.16;4939364;28;20034;-28
2022/08/04 00:30:14;;;;;;;3.13;2.20;;;;;;;-148.56;100.00;61375.16;4934714;28;20868;-27
2022/08/04 00:32:40;;;;;;;4.50;2.47;;;;;;;-148.56;100.00;61375.16;4929220;28;20030;-26
2022/08/04 00:35:05;;;;;;;3.40;1.90;;;;;;;-148.56;100.00;61375.16;4930917;28;20038;-24
2022/08/04 00:37:31;;;;;;;2.28;1.90;;;;;;;-148.56;100.00;61375.16;4928566;28;20038;-28
2022/08/04 00:39:56;;;;;;;4.30;2.10;;;;;;;-148.56;100.00;61375.16;4933905;28;20239;-29
2022/08/04 00:42:36;;;;;;;2.15;1.83;;;;;;;-148.56;100.00;61375.16;4933808;28;20216;-25
2022/08/04 00:45:39;;;;;;;6.80;1.98;;;;;;;-148.56;100.00;61375.16;4935717;28;20936;-24
2022/08/04 00:48:46;;;;;;;5.45;2.25;;;;;;;-148.56;100.00;61375.16;4937767;28;20513;-31
2022/08/04 00:51:12;;;;;;;3.88;2.15;;;;;;;-148.56;100.00;61375.16;4932690;28;20177;-28
2022/08/04 00:54:02;;;;;;;2.22;1.92;;;;;;;-148.56;100.00;61375.16;4932986;28;20030;-30
2022/08/04 00:56:59;;;;;;;3.05;1.95;;;;;;;-148.56;100.00;61375.16;4938745;28;20045;-26
2022/08/04 00:59:38;;;;;;;3.22;2.05;;;;;;;-148.56;100.00;61375.16;4933437;28;20031;-29
2022/08/04 01:02:20;;;;;;;2.53;1.85;;;;;;;-148.56;100.00;61375.16;4934944;28;20105;-27
2022/08/04 01:05:12;;;;;;;6.75;2.08;;;;;;;-148.56;100.00;61375.16;4926498;28;22701;-26
2022/08/04 01:08:06;;;;;;;3.65;2.03;;;;;;;-148.56;100.00;61375.16;4930403;28;20049;-32
2022/08/04 01:10:31;;;;;;;2.25;2.05;;;;;;;-148.56;100.00;61375.16;4932665;28;20042;-30
2022/08/04 01:13:34;;;;;;;4.43;2.28;;;;;;;-148.56;100.00;61375.16;4942414;28;20045;-26
2022/08/04 01:16:04;;;;;;;5.75;2.08;;;;;;;-148.56;100.00;61375.16;4939297;28;20088;-32
2022/08/04 01:18:39;;;;;;;3.25;2.40;;;;;;;-148.56;100.00;61375.16;4931891;28;20030;-30
2022/08/04 01:21:56;;;;;;;3.10;2.00;;;;;;;-148.56;100.00;61375.16;4941195;28;20108;-26
2022/08/04 01:24:44;;;;;;;4.03;1.90;;;;;;;-148.56;100.00;61375.16;4929150;28;20050;-25
2022/08/04 01:27:16;;;;;;;4.40;2.17;;;;;;;-148.56;100.00;61375.16;4933228;28;20255;-29
2022/08/04 01:29:49;;;;;;;4.88;2.10;;;;;;;-148.56;100.00;61375.16;4957836;28;20113;-25
2022/08/04 01:32:36;;;;;;;2.55;2.20;;;;;;;-148.56;100.00;61375.16;4937132;28;20045;-29
2022/08/04 01:35:07;;;;;;;4.43;2.10;;;;;;;-148.56;100.00;61375.16;4943274;28;20830;-26
2022/08/04 01:38:05;;;;;;;3.05;2.10;;;;;;;-148.56;100.00;61375.16;4938283;28;20026;-27
2022/08/04 01:40:30;;;;;;;5.25;2.17;;;;;;;-148.56;100.00;61375.16;4939739;28;20038;-25
2022/08/04 01:42:55;;;;;;;2.35;1.98;;;;;;;-148.56;100.00;61375.16;4936880;28;20042;-28
2022/08/04 01:45:22;;;;;;;2.70;2.00;;;;;;;-148.56;100.00;61375.16;4926685;28;20045;-25
2022/08/04 01:47:50;;;;;;;4.20;2.00;;;;;;;-148.56;100.00;61375.16;4936644;28;21428;-31
2022/08/04 01:50:15;;;;;;;3.92;1.98;;;;;;;-148.56;100.00;61375.16;4946060;28;20034;-29
2022/08/04 01:52:41;;;;;;;2.55;1.85;;;;;;;-148.56;100.00;61375.16;4933958;28;20582;-27
2022/08/04 01:55:09;;;;;;;2.90;2.00;;;;;;;-148.56;100.00;61375.16;4941505;28;20030;-30
2022/08/04 01:57:45;;;;;;;2.85;2.00;;;;;;;-148.56;100.00;61375.16;4943905;28;20022;-30
2022/08/04 02:00:12;;;;;;;2.85;1.80;;;;;;;-148.56;100.00;61375.16;4939672;28;20034;-25
2022/08/04 02:02:38;;;;;;;4.25;2.20;;;;;;;-148.56;100.00;61375.16;4937238;28;20038;-27
2022/08/04 02:05:03;;;;;;;5.45;2.08;;;;;;;-148.56;100.00;61375.16;4946256;28;20057;-23
2022/08/04 02:08:00;;;;;;;4.97;2.20;;;;;;;-148.56;100.00;61375.16;4937279;28;20034;-29
2022/08/04 02:10:42;;;;;;;3.42;2.03;;;;;;;-148.56;100.00;61375.16;4940880;28;20038;-31
2022/08/04 02:13:28;;;;;;;7.28;1.90;;;;;;;-148.56;100.00;61375.16;4933240;28;20038;-29
2022/08/04 02:16:03;;;;;;;2.88;1.90;;;;;;;-148.56;100.00;61375.16;4927555;28;20034;-27
2022/08/04 02:19:01;;;;;;;4.63;2.25;;;;;;;-148.56;100.00;61375.16;4938646;28;20035;-28
2022/08/04 02:21:27;;;;;;;3.03;2.00;;;;;;;-148.56;100.00;61375.16;4943267;28;20137;-26
2022/08/04 02:23:56;;;;;;;3.83;2.00;;;;;;;-148.56;100.00;61375.16;4922543;28;21147;-25
2022/08/04 02:26:21;;;;;;;2.92;1.83;;;;;;;-148.56;100.00;61375.16;4946641;28;20380;-28
2022/08/04 02:29:11;;;;;;;2.83;2.05;;;;;;;-148.56;100.00;61375.16;4943583;28;20493;-31
2022/08/04 02:31:55;;;;;;;5.03;2.00;;;;;;;-148.56;100.00;61375.16;4936892;28;20067;-29
2022/08/04 02:34:42;;;;;;;2.97;2.00;;;;;;;-148.56;100.00;61375.16;4941380;28;21098;-32
2022/08/04 02:37:08;;;;;;;3.58;2.10;;;;;;;-148.56;100.00;61375.16;4940396;28;20162;-26
2022/08/04 02:39:34;;;;;;;1.92;1.73;;;;;;;-148.56;100.00;61375.16;4946554;28;20030;-27
2022/08/04 02:42:01;;;;;;;4.18;2.30;;;;;;;-148.56;100.00;61375.16;4949989;28;20983;-28
2022/08/04 02:44:27;;;;;;;5.68;1.88;;;;;;;-148.56;100.00;61375.16;4950759;28;20755;-29
2022/08/04 02:46:53;;;;;;;3.10;2.20;;;;;;;-148.56;100.00;61375.16;4943461;28;20034;-25
2022/08/04 02:49:18;;;;;;;3.15;2.03;;;;;;;-148.56;100.00;61375.16;4942958;28;20231;-27
2022/08/04 02:51:45;;;;;;;3.17;2.10;;;;;;;-148.56;100.00;61375.16;4937957;28;20205;-27
2022/08/04 02:54:10;;;;;;;2.65;1.80;;;;;;;-148.56;100.00;61375.16;4945848;28;20028;-28
2022/08/04 02:56:36;;;;;;;2.67;1.67;;;;;;;-148.56;100.00;61375.16;4945281;28;20030;-27
2022/08/04 02:59:07;;;;;;;2.78;1.77;;;;;;;-148.56;100.00;61375.16;4946955;28;20058;-29
2022/08/04 03:01:32;;;;;;;3.75;2.00;;;;;;;-148.56;100.00;61375.16;4946123;28;20026;-30
2022/08/04 03:04:16;;;;;;;3.83;2.17;;;;;;;-148.56;100.00;61375.16;4942268;28;20034;-30
2022/08/04 03:06:48;;;;;;;3.10;2.03;;;;;;;-148.56;100.00;61375.16;4942508;28;20648;-30
2022/08/04 03:09:36;;;;;;;3.28;2.00;;;;;;;-148.56;100.00;61375.16;4947913;28;20037;-27
2022/08/04 03:12:25;;;;;;;7.45;1.98;;;;;;;-148.56;100.00;61375.16;4946146;28;23602;-25
2022/08/04 03:15:09;;;;;;;2.17;1.90;;;;;;;-148.56;100.00;61375.16;4946042;28;20687;-28
2022/08/04 03:17:55;;;;;;;9.23;2.20;;;;;;;-148.56;100.00;61375.16;4944693;28;20050;-30
2022/08/04 03:20:54;;;;;;;7.93;1.98;;;;;;;-148.56;100.00;61375.16;4942747;28;20145;-28
2022/08/04 03:23:35;;;;;;;3.42;2.20;;;;;;;-148.56;100.00;61375.16;4939797;28;20347;-28
2022/08/04 03:26:25;;;;;;;2.50;1.83;;;;;;;-148.56;100.00;61375.16;4944873;28;20069;-27
2022/08/04 03:29:15;;;;;;;3.03;2.28;;;;;;;-148.56;100.00;61375.16;4939774;28;20046;-29
2022/08/04 03:31:46;;;;;;;2.63;2.30;;;;;;;-148.56;100.00;61375.16;4943626;28;20106;-27
2022/08/04 03:34:17;;;;;;;4.68;2.00;;;;;;;-148.56;100.00;61375.16;4938661;28;20161;-28
2022/08/04 03:36:55;;;;;;;3.05;2.03;;;;;;;-148.56;100.00;61375.16;4941508;28;20337;-31
2022/08/04 03:39:41;;;;;;;3.25;2.08;;;;;;;-148.56;100.00;61375.16;4949751;28;20078;-30
2022/08/04 03:42:25;;;;;;;3.58;1.90;;;;;;;-148.56;100.00;61375.16;4946981;28;20476;-29
2022/08/04 03:45:22;;;;;;;2.60;1.95;;;;;;;-148.56;100.00;61375.16;4944093;28;20026;-27
2022/08/04 03:48:04;;;;;;;4.90;2.03;;;;;;;-148.56;100.00;61375.16;4936108;28;20192;-28
2022/08/04 03:53:43;;;;;;;5.07;2.10;;;;;;;-148.56;100.00;61375.16;4946167;28;20053;-31
2022/08/04 03:56:08;;;;;;;4.30;2.58;;;;;;;-148.56;100.00;61375.16;4963874;28;20036;-29
2022/08/04 03:58:40;;;;;;;6.95;2.40;;;;;;;-148.56;100.00;61375.16;4942349;28;20129;-28
2022/08/04 04:01:15;;;;;;;7.63;1.92;;;;;;;-148.56;100.00;61375.16;4943984;28;20531;-28
2022/08/04 04:03:53;;;;;;;4.43;2.03;;;;;;;-148.56;100.00;61375.16;4937985;28;20342;-28
2022/08/04 04:06:25;;;;;;;4.68;2.40;;;;;;;-148.56;100.00;61375.16;4941651;28;20034;-27
2022/08/04 04:08:59;;;;;;;5.30;1.90;;;;;;;-148.56;100.00;61375.16;4949815;28;20038;-29
2022/08/04 04:11:27;;;;;;;3.72;1.80;;;;;;;-148.56;100.00;61375.16;4940076;28;20126;-29
2022/08/04 04:14:13;;;;;;;4.55;2.40;;;;;;;-148.56;100.00;61375.16;4937486;28;20030;-28
2022/08/04 04:17:07;;;;;;;5.32;1.95;;;;;;;-148.56;100.00;61375.16;4942960;28;20112;-26
2022/08/04 04:19:54;;;;;;;3.72;2.13;;;;;;;-148.56;100.00;61375.16;4939967;28;20040;-27
2022/08/04 04:22:47;;;;;;;6.10;2.20;;;;;;;-148.56;100.00;61375.16;4941405;28;20034;-32
2022/08/04 04:25:30;;;;;;;5.88;2.10;;;;;;;-148.56;100.00;61375.16;4941983;28;20950;-29
2022/08/04 04:28:34;;;;;;;7.93;2.22;;;;;;;-148.56;100.00;61375.16;4948667;28;21582;-31
2022/08/04 04:31:32;;;;;;;4.18;2.15;;;;;;;-148.56;100.00;61375.16;4942808;28;20057;-31
2022/08/04 04:34:02;;;;;;;6.82;2.20;;;;;;;-148.56;100.00;61375.16;4942910;28;20038;-28
2022/08/04 04:36:43;;;;;;;4.22;1.83;;;;;;;-148.56;100.00;61375.16;4955570;28;20595;-30
2022/08/04 04:39:11;;;;;;;7.53;2.20;;;;;;;-148.56;100.00;61375.16;4943707;28;20038;-28
2022/08/04 04:41:48;;;;;;;4.45;2.10;;;;;;;-148.56;100.00;61375.16;4947330;28;20179;-28
2022/08/04 04:44:40;;;;;;;3.53;2.20;;;;;;;-148.56;100.00;61375.16;4942890;28;22667;-32
2022/08/04 04:47:22;;;;;;;5.07;2.40;;;;;;;-148.56;100.00;61375.16;4948022;28;20033;-24
2022/08/04 04:50:08;;;;;;;3.35;2.15;;;;;;;-148.56;100.00;61375.16;4937797;28;20169;-28
2022/08/04 04:53:01;;;;;;;5.43;2.20;;;;;;;-148.56;100.00;61375.16;4930095;28;20096;-28
2022/08/04 04:55:29;;;;;;;4.03;2.15;;;;;;;-148.56;100.00;61375.16;4931846;28;20061;-25
2022/08/04 04:57:59;;;;;;;4.70;2.35;;;;;;;-148.56;100.00;61375.16;4950096;28;20030;-29
2022/08/04 05:00:54;;;;;;;5.03;2.00;;;;;;;-148.56;100.00;61375.16;4933519;28;20058;-25
2022/08/04 05:03:36;;;;;;;4.78;1.92;;;;;;;-148.56;100.00;61375.16;4921651;28;20169;-28
2022/08/04 05:06:35;;;;;;;6.22;2.45;;;;;;;-148.56;100.00;61375.16;4941593;28;20041;-31
2022/08/04 05:09:17;;;;;;;3.05;2.03;;;;;;;-148.56;100.00;61375.16;4935961;28;20736;-27
2022/08/04 05:12:01;;;;;;;5.03;2.40;;;;;;;-148.56;100.00;61375.16;4930689;28;20661;-30
2022/08/04 05:14:32;;;;;;;5.78;2.40;;;;;;;-148.56;100.00;61375.16;4940250;28;20859;-28
2022/08/04 05:17:03;;;;;;;2.60;2.15;;;;;;;-148.56;100.00;61375.16;4919849;28;20128;-27
2022/08/04 05:19:50;;;;;;;5.18;2.20;;;;;;;-148.56;100.00;61375.16;4949800;28;20044;-27
2022/08/04 05:22:21;;;;;;;3.67;2.08;;;;;;;-148.56;100.00;61375.16;4945126;28;21151;-30
2022/08/04 05:24:47;;;;;;;4.00;2.15;;;;;;;-148.56;100.00;61375.16;4940816;28;20044;-31
2022/08/04 05:27:27;;;;;;;3.92;2.13;;;;;;;-148.56;100.00;61375.16;4942631;28;20034;-28
2022/08/04 05:29:55;;;;;;;6.25;2.45;;;;;;;-148.56;100.00;61375.16;4946902;28;20026;-30
2022/08/04 05:32:27;;;;;;;3.65;2.45;;;;;;;-148.56;100.00;61375.16;4938229;28;20087;-27
2022/08/04 05:34:57;;;;;;;5.95;2.50;;;;;;;-148.56;100.00;61375.16;4942050;28;20454;-27
2022/08/04 05:37:22;;;;;;;5.75;2.30;;;;;;;-148.56;100.00;61375.16;4941206;28;20030;-28
2022/08/04 05:40:03;;;;;;;3.70;2.08;;;;;;;-148.56;100.00;61375.16;4932567;28;20034;-27
2022/08/04 05:42:30;;;;;;;4.03;2.20;;;;;;;-148.56;100.00;61375.16;4941855;28;20457;-26
2022/08/04 05:44:55;;;;;;;8.45;3.00;;;;;;;-148.56;100.00;61375.16;4943639;28;20788;-29
2022/08/04 05:47:20;;;;;;;5.45;2.08;;;;;;;-148.56;100.00;61375.16;4943461;28;20034;-30
2022/08/04 05:49:46;;;;;;;4.22;2.20;;;;;;;-148.56;100.00;61375.16;4943431;28;20033;-29
2022/08/04 05:52:11;;;;;;;4.53;2.40;;;;;;;-148.56;100.00;61375.16;4947220;28;20120;-28
2022/08/04 05:54:37;;;;;;;5.65;2.22;;;;;;;-148.56;100.00;61375.16;4944426;28;20041;-28
2022/08/04 05:57:04;;;;;;;6.90;2.28;;;;;;;-148.56;100.00;61375.16;4920918;28;20070;-28
2022/08/04 05:59:29;;;;;;;3.03;2.10;;;;;;;-148.56;100.00;61375.16;4940733;28;20082;-28
2022/08/04 06:01:56;;;;;;;4.63;2.22;;;;;;;-148.56;100.00;61375.16;4943643;28;20038;-32
2022/08/04 06:04:24;;;;;;;4.18;2.15;;;;;;;-148.56;100.00;61375.16;4934688;28;20050;-26
2022/08/04 06:06:49;;;;;;;7.95;2.50;;;;;;;-148.56;100.00;61375.16;4941229;28;20034;-29
2022/08/04 06:09:14;;;;;;;7.80;2.40;;;;;;;-148.56;100.00;61375.16;4938048;28;21110;-29
2022/08/04 06:11:40;;;;;;;4.93;2.35;;;;;;;-148.56;100.00;61375.16;4937069;28;20768;-26
2022/08/04 06:14:07;;;;;;;4.85;2.20;;;;;;;-148.56;100.00;61375.16;4918153;28;20697;-27
2022/08/04 06:16:39;;;;;;;4.25;2.40;;;;;;;-148.56;100.00;61375.16;4937763;28;20709;-28
2022/08/04 06:19:09;;;;;;;5.65;2.30;;;;;;;-148.56;100.00;61375.16;4938995;28;20101;-30
2022/08/04 06:21:39;;;;;;;8.52;2.70;;;;;;;-148.56;100.00;61375.16;4938651;28;20362;-29
2022/08/04 06:24:06;;;;;;;4.65;2.50;;;;;;;-148.56;100.00;61375.16;4936461;28;20026;-27
2022/08/04 06:26:32;;;;;;;6.90;2.83;;;;;;;-148.56;100.00;61375.16;4923309;28;20046;-29
2022/08/04 06:28:57;;;;;;;3.63;2.30;;;;;;;-148.56;100.00;61375.16;4943028;28;20519;-25
2022/08/04 06:31:42;;;;;;;3.28;1.98;;;;;;;-148.56;100.00;61375.16;4953631;28;20044;-28
2022/08/04 06:34:08;;;;;;;4.18;2.30;;;;;;;-148.56;100.00;61375.16;4939766;28;20975;-29
2022/08/04 06:36:36;;;;;;;2.60;2.10;;;;;;;-148.56;100.00;61375.16;4936057;28;20038;-28
2022/08/04 06:39:02;;;;;;;6.05;2.25;;;;;;;-148.56;100.00;61375.16;4933434;28;20049;-24
2022/08/04 06:41:28;;;;;;;4.32;2.30;;;;;;;-148.56;100.00;61375.16;4937486;28;20897;-25
2022/08/04 06:43:53;;;;;;;3.85;2.35;;;;;;;-148.56;100.00;61375.16;4932984;28;20049;-27
2022/08/04 06:46:19;;;;;;;7.72;2.63;;;;;;;-148.56;100.00;61375.16;4925545;28;20030;-28
2022/08/04 06:48:44;;;;;;;5.80;2.42;;;;;;;-148.56;100.00;61375.16;4926112;28;20160;-24
2022/08/04 06:51:11;;;;;;;6.72;2.40;;;;;;;-148.56;100.00;61375.16;4915422;28;20034;-28
2022/08/04 06:53:37;;;;;;;5.75;2.55;;;;;;;-148.56;100.00;61375.16;4956834;28;20038;-28
2022/08/04 06:56:02;;;;;;;4.80;2.70;;;;;;;-148.56;100.00;61375.16;4941872;28;20089;-26
2022/08/04 06:58:31;;;;;;;7.28;2.70;;;;;;;-148.56;100.00;61375.16;4940568;28;21748;-26
2022/08/04 07:01:00;;;;;;;8.95;2.50;;;;;;;-148.56;100.00;61375.16;4931687;28;20438;-27
2022/08/04 07:03:26;;;;;;;5.20;2.20;;;;;;;-148.56;100.00;61375.16;4930411;28;20133;-28
2022/08/04 07:05:51;;;;;;;4.95;2.50;;;;;;;-148.56;100.00;61375.16;4928759;28;20059;-26
2022/08/04 07:08:16;;;;;;;4.97;2.63;;;;;;;-148.56;100.00;61375.16;4930024;28;20145;-24
2022/08/04 07:10:42;;;;;;;6.20;2.40;;;;;;;-148.56;100.00;61375.16;4929355;28;20832;-26
2022/08/04 07:13:08;;;;;;;7.13;2.65;;;;;;;-148.56;100.00;61375.16;4938409;28;20026;-26
2022/08/04 07:15:33;;;;;;;9.50;2.30;;;;;;;-148.56;100.00;61375.16;4933139;28;20030;-26
2022/08/04 07:18:02;;;;;;;4.90;2.35;;;;;;;-148.56;100.00;61375.16;4910309;28;20069;-28
2022/08/04 07:20:28;;;;;;;7.00;2.42;;;;;;;-148.56;100.00;61375.16;4932797;28;20030;-27
2022/08/04 07:22:53;;;;;;;4.35;2.50;;;;;;;-148.56;100.00;61375.16;4932135;28;20038;-30
2022/08/04 07:25:19;;;;;;;3.80;2.20;;;;;;;-148.56;100.00;61375.16;4938543;28;20450;-30
2022/08/04 07:27:45;;;;;;;7.82;2.65;;;;;;;-148.56;100.00;61375.16;4920385;28;20701;-28
2022/08/04 07:30:11;;;;;;;6.18;2.30;;;;;;;-148.56;100.00;61375.16;4932238;28;20034;-27
2022/08/04 07:32:36;;;;;;;5.00;2.35;;;;;;;-148.56;100.00;61375.16;4934707;28;20208;-31
2022/08/04 07:35:05;;;;;;;5.28;2.13;;;;;;;-148.56;100.00;61375.16;4917176;28;21186;-30
2022/08/04 07:37:31;;;;;;;5.72;2.20;;;;;;;-148.56;100.00;61375.16;4931847;28;20041;-26
2022/08/04 07:39:56;;;;;;;3.60;2.40;;;;;;;-148.56;100.00;61375.16;4916201;28;20034;-28
2022/08/04 07:42:22;;;;;;;7.63;2.42;;;;;;;-148.56;100.00;61375.16;4937558;28;20525;-27
2022/08/04 07:44:47;;;;;;;3.95;2.17;;;;;;;-148.56;100.00;61375.16;4918132;28;20018;-27
2022/08/04 07:47:13;;;;;;;6.35;2.00;;;;;;;-148.56;100.00;61375.16;4952247;28;20034;-29
2022/08/04 07:49:40;;;;;;;5.45;2.33;;;;;;;-148.56;100.00;61375.16;4931637;28;20361;-27
2022/08/04 07:52:06;;;;;;;5.75;2.03;;;;;;;-148.56;100.00;61375.16;4938515;28;20169;-29
2022/08/04 07:54:32;;;;;;;2.10;1.90;;;;;;;-148.56;100.00;61375.16;4939980;28;20037;-26
2022/08/04 07:56:57;;;;;;;3.78;2.17;;;;;;;-148.56;100.00;61375.16;4941352;28;20034;-28
2022/08/04 07:59:23;;;;;;;3.60;1.77;;;;;;;-148.56;100.00;61375.16;4937454;28;20031;-28
2022/08/04 08:01:48;;;;;;;3.50;2.17;;;;;;;-148.56;100.00;61375.16;4936290;28;20033;-30
2022/08/04 08:04:14;;;;;;;3.63;1.80;;;;;;;-148.56;100.00;61375.16;4934719;28;20231;-25
2022/08/04 08:06:40;;;;;;;2.08;1.80;;;;;;;-148.56;100.00;61375.16;4932444;28;20049;-28
2022/08/04 08:09:07;;;;;;;2.05;1.85;;;;;;;-148.56;100.00;61375.16;4936022;28;20129;-28
2022/08/04 08:11:33;;;;;;;3.35;1.85;;;;;;;-148.56;100.00;61375.16;4934587;28;21115;-25
2022/08/04 08:13:58;;;;;;;2.22;1.90;;;;;;;-148.56;100.00;61375.16;4935765;28;20030;-29
2022/08/04 08:16:23;;;;;;;3.20;1.88;;;;;;;-148.56;100.00;61375.16;4936781;28;20051;-29
2022/08/04 08:18:49;;;;;;;4.15;1.98;;;;;;;-148.56;100.00;61375.16;4932208;28;20578;-28
2022/08/04 08:21:14;;;;;;;2.88;1.95;;;;;;;-148.56;100.00;61375.16;4932926;28;21567;-28
2022/08/04 08:23:40;;;;;;;7.95;2.40;;;;;;;-148.56;100.00;61375.16;4918800;28;20026;-31
2022/08/04 08:26:05;;;;;;;4.57;2.00;;;;;;;-148.56;100.00;61375.16;4917464;28;20610;-27
2022/08/04 08:28:31;;;;;;;7.88;2.22;;;;;;;-148.56;100.00;61375.16;4930176;28;20617;-30
2022/08/04 08:30:56;;;;;;;8.30;1.98;;;;;;;-148.56;100.00;61375.16;4933526;28;20057;-30
2022/08/04 08:33:21;;;;;;;12.20;1.90;;;;;;;-148.56;100.00;61375.16;4940926;28;20041;-26
2022/08/04 08:36:07;;;;;;;7.03;2.00;;;;;;;-148.56;100.00;61375.16;4933365;28;21922;-26
2022/08/04 08:38:54;;;;;;;7.35;2.15;;;;;;;-148.56;100.00;61375.16;4911752;28;20030;-32
2022/08/04 08:41:32;;;;;;;3.67;1.90;;;;;;;-148.56;100.00;61375.16;4935205;28;20113;-29
2022/08/04 08:44:28;;;;;;;3.63;2.00;;;;;;;-148.56;100.00;61375.16;4920891;28;20041;-28
2022/08/04 08:46:56;;;;;;;5.30;2.10;;;;;;;-148.56;100.00;61375.16;4931482;28;20123;-29
2022/08/04 08:49:31;;;;;;;7.70;2.35;;;;;;;-148.56;100.00;61375.16;4931765;28;20039;-28
2022/08/04 08:52:11;;;;;;;6.95;2.30;;;;;;;-148.56;100.00;61375.16;4938139;28;20105;-30
2022/08/04 08:54:58;;;;;;;6.03;2.40;;;;;;;-148.56;100.00;61375.16;4935668;28;20724;-31
2022/08/04 08:57:56;;;;;;;5.40;2.72;;;;;;;-148.56;100.00;61375.16;4932379;28;20631;-32
2022/08/04 09:00:30;;;;;;;12.40;4.03;;;;;;;-148.56;100.00;61375.16;4932325;28;20168;-30
2022/08/04 09:03:10;;;;;;;9.95;3.40;;;;;;;-148.56;100.00;61375.16;4936724;28;20034;-29
2022/08/04 09:05:57;;;;;;;8.32;3.78;;;;;;;-148.56;100.00;61375.16;4940816;28;20038;-25
2022/08/04 09:08:44;;;;;;;11.13;3.42;;;;;;;-148.56;100.00;61375.16;4936132;28;20125;-29
2022/08/04 09:11:18;;;;;;;11.57;4.10;;;;;;;-148.56;100.00;61375.16;4947530;28;20096;-26
2022/08/04 09:13:47;;;;;;;6.85;3.70;;;;;;;-148.56;100.00;61375.16;4943107;28;20034;-28
2022/08/04 09:16:41;;;;;;;10.27;3.55;;;;;;;-148.56;100.00;61375.16;4931819;28;20658;-28
2022/08/04 09:19:10;;;;;;;9.20;3.88;;;;;;;-148.56;100.00;61375.16;4946474;28;20608;-28
2022/08/04 09:21:47;;;;;;;9.32;3.92;;;;;;;-148.56;100.00;61375.16;4949965;28;20085;-27
2022/08/04 09:24:33;;;;;;;10.77;4.40;;;;;;;-148.56;100.00;61375.16;4945482;28;20825;-28
2022/08/04 09:27:00;;;;;;;9.30;4.10;;;;;;;-148.56;100.00;61375.16;4941355;28;20046;-26
2022/08/04 09:29:39;;;;;;;9.68;4.03;;;;;;;-148.56;100.00;61375.16;4946933;28;20557;-28
2022/08/04 09:32:33;;;;;;;14.60;5.13;;;;;;;-148.56;100.00;61375.16;4953997;28;20046;-24
2022/08/04 09:35:06;;;;;;;12.13;4.18;;;;;;;-148.56;100.00;61375.16;4946102;28;20032;-32
2022/08/04 09:37:37;;;;;;;10.60;3.70;;;;;;;-148.56;100.00;61375.16;4942271;28;20136;-28
2022/08/04 09:40:05;;;;;;;9.57;3.78;;;;;;;-148.56;100.00;61375.16;4945256;28;20034;-26
2022/08/04 09:42:40;;;;;;;8.60;3.85;;;;;;;-148.56;100.00;61375.16;4945396;28;20129;-28
2022/08/04 09:45:18;;;;;;;8.63;3.35;;;;;;;-148.56;100.00;61375.16;4943573;28;20023;-25
2022/08/04 09:47:51;;;;;;;8.70;3.97;;;;;;;-148.56;100.00;61375.16;4942770;28;20038;-29
2022/08/04 09:50:23;;;;;;;7.82;3.35;;;;;;;-148.56;100.00;61375.16;4932524;28;20798;-28
2022/08/04 09:52:54;;;;;;;;;;;;;;;-148.56;100.00;61375.16;4943850;28;20038;-29
2022/08/04 09:55:45;;;;;;;7.00;3.50;;;;;;;-148.56;100.00;61375.16;4942485;28;19922;-31
2022/08/04 09:58:24;;;;;;;8.40;3.58;;;;;;;-148.56;100.00;61375.16;4943023;28;20961;-29
2022/08/04 10:01:00;;;;;;;6.03;3.38;;;;;;;-148.56;100.00;61375.16;4944732;28;20124;-29
2022/08/04 10:03:30;;;;;;;9.00;3.80;;;;;;;-148.56;100.00;61375.16;4946198;28;21157;-23
2022/08/04 10:06:18;;;;;;;9.25;3.25;;;;;;;-148.56;100.00;61375.16;4947323;28;20643;-27
2022/08/04 10:08:52;;;;;;;9.70;3.35;;;;;;;-148.56;100.00;61375.16;4943037;28;20042;-29
2022/08/04 10:11:22;;;;;;;6.50;3.15;;;;;;;-148.56;100.00;61375.16;4948217;28;20030;-26
2022/08/04 10:14:05;;;;;;;6.70;3.22;;;;;;;-148.56;100.00;61375.16;4933921;28;20049;-31
2022/08/04 10:17:11;;;;;;;5.18;3.33;;;;;;;-148.56;100.00;61375.16;4940266;28;20054;-28
2022/08/04 10:19:37;;;;;;;5.45;3.03;;;;;;;-148.56;100.00;61375.16;4923044;28;20038;-29
2022/08/04 10:22:12;;;;;;;5.35;3.05;;;;;;;-148.56;100.00;61375.16;4939797;28;20046;-30
2022/08/04 10:25:08;;;;;;;5.88;3.05;;;;;;;-148.56;100.00;61375.16;4940837;28;20116;-27
2022/08/04 10:27:50;;;;;;;7.30;3.22;;;;;;;-148.56;100.00;61375.16;4939382;28;20042;-28
2022/08/04 10:30:16;;;;;;;;;;;;;;;-148.56;100.00;61375.16;4948134;28;20022;-27
2022/08/04 10:32:43;;;;;;;5.78;3.20;;;;;;;-148.56;100.00;61375.16;4942135;28;20642;-31
2022/08/04 10:35:10;;;;;;;8.60;3.38;;;;;;;-148.56;100.00;61375.16;4939048;28;20050;-24
2022/08/04 10:38:20;;;;;;;5.25;2.97;;;;;;;-148.56;100.00;61375.16;4942408;28;20042;-28
2022/08/04 10:40:48;;;;;;;4.90;2.92;;;;;;;-148.56;100.00;61375.16;4942048;28;20085;-26
2022/08/04 10:43:49;;;;;;;4.70;2.85;;;;;;;-148.56;100.00;61375.16;4942881;28;20038;-29
2022/08/04 10:46:28;;;;;;;5.13;3.00;;;;;;;-148.56;100.00;61375.16;4941526;28;20062;-26
2022/08/04 10:49:08;;;;;;;4.47;2.75;;;;;;;-148.56;100.00;61375.16;4960225;28;20042;-25
2022/08/04 10:51:40;;;;;;;5.72;2.90;;;;;;;-148.56;100.00;61375.16;4941321;28;20033;-30
2022/08/04 10:54:06;;;;;;;;;;;;;;;-148.56;100.00;61375.16;4947667;28;20034;-31
2022/08/04 10:56:43;;;;;;;4.93;2.70;;;;;;;-148.56;100.00;61375.16;4944939;28;19922;-29
2022/08/04 10:59:15;;;;;;;5.10;2.83;;;;;;;-148.56;100.00;61375.16;4937272;28;20036;-29
2022/08/04 11:01:43;;;;;;;5.72;2.70;;;;;;;-148.56;100.00;61375.16;4948076;28;20298;-28
2022/08/04 11:04:24;;;;;;;4.95;2.88;;;;;;;-148.56;100.00;61375.16;4945702;28;20081;-28
2022/08/04 11:06:51;;;;;;;6.13;2.60;;;;;;;-148.56;100.00;61375.16;4936487;28;20077;-30
2022/08/04 11:09:17;;;;;;;5.72;2.70;;;;;;;-148.56;100.00;61375.16;4934600;28;20050;-30
2022/08/04 11:11:48;;;;;;;6.13;2.70;;;;;;;-148.56;100.00;61375.16;4945757;28;20034;-30
2022/08/04 11:14:22;;;;;;;4.32;2.58;;;;;;;-148.56;100.00;61375.16;4949534;28;20034;-31
2022/08/04 11:17:03;;;;;;;3.88;2.35;;;;;;;-148.56;100.00;61375.16;4943283;28;20034;-26
2022/08/04 11:19:28;;;;;;;6.95;3.05;;;;;;;-148.56;100.00;61375.16;4946144;28;20125;-37
2022/08/04 11:22:09;;;;;;;4.00;2.42;;;;;;;-148.56;100.00;61375.16;4940133;28;20032;-28
2022/08/04 11:24:35;;;;;;;;;;;;;;;-148.56;100.00;61375.16;4950435;28;21586;-28
2022/08/04 11:27:04;;;;;;;4.70;2.40;;;;;;;-148.56;100.00;61375.16;4950580;28;19922;-28
2022/08/04 11:29:41;;;;;;;4.13;2.35;;;;;;;-148.56;100.00;61375.16;4945988;28;20034;-30
2022/08/04 11:32:17;;;;;;;3.92;2.58;;;;;;;-148.56;100.00;61375.16;4946774;28;20034;-31
2022/08/04 11:34:46;;;;;;;5.22;2.25;;;;;;;-148.56;100.00;61375.16;4958620;28;20033;-26
2022/08/04 11:37:17;;;;;;;4.15;2.40;;;;;;;-148.56;100.00;61375.16;4921895;28;20400;-32
2022/08/04 11:39:50;;;;;;;3.42;2.10;;;;;;;-148.56;100.00;61375.16;4941622;28;20030;-29
2022/08/04 11:42:27;;;;;;;5.05;2.20;;;;;;;-148.56;100.00;61375.16;4944558;28;21042;-27
2022/08/04 11:45:05;;;;;;;3.75;2.28;;;;;;;-148.56;100.00;61375.16;4949340;28;20120;-29